Time;durP1;ratioP1;P1;durP2;ratioP2;P2;SDS_P1;SDS_P2;PMS_P1;PMS_P2;Temp;Humidity;BMP_temperature;BMP_pressure;BME280_temperature;BME280_humidity;BME280_pressure;Samples;Min_cycle;Max_cycle;Signal;HPM_P1;HPM_P2
2022/12/06 00:00:33;;;;;;;2.78;1.55;;;25.90;52.90;;;;;;4123222;28;20359;-42
2022/12/06 00:02:55;;;;;;;4.25;1.67;;;26.00;53.20;;;;;;4121574;28;20041;-40
2022/12/06 00:05:18;;;;;;;4.03;1.90;;;26.00;53.20;;;;;;4121796;28;20038;-42
2022/12/06 00:07:40;;;;;;;2.67;1.52;;;26.00;53.30;;;;;;4124254;28;20394;-42
2022/12/06 00:10:04;;;;;;;3.58;1.63;;;26.00;53.30;;;;;;4123328;28;21921;-41
2022/12/06 00:12:27;;;;;;;2.72;1.50;;;26.00;53.40;;;;;;4123740;28;20053;-41
2022/12/06 00:14:49;;;;;;;2.80;1.55;;;26.00;53.60;;;;;;4130239;28;20517;-44
2022/12/06 00:17:12;;;;;;;5.45;1.50;;;26.10;53.60;;;;;;4127724;28;20058;-42
2022/12/06 00:19:34;;;;;;;2.05;1.20;;;26.10;53.50;;;;;;4125558;28;20385;-45
2022/12/06 00:21:57;;;;;;;2.47;1.38;;;26.10;53.50;;;;;;4124251;28;20038;-42
2022/12/06 00:24:21;;;;;;;2.45;1.20;;;26.10;53.50;;;;;;4123965;28;20053;-47
2022/12/06 00:26:46;;;;;;;3.28;1.73;;;26.10;53.30;;;;;;4125564;28;20046;-42
2022/12/06 00:29:15;;;;;;;4.15;1.52;;;26.10;53.20;;;;;;4128405;28;20573;-44
2022/12/06 00:31:38;;;;;;;3.08;1.50;;;26.10;53.10;;;;;;4126217;28;20130;-44
2022/12/06 00:34:01;;;;;;;3.83;1.80;;;26.20;53.30;;;;;;4124681;28;20034;-43
2022/12/06 00:36:27;;;;;;;3.67;1.40;;;26.20;53.30;;;;;;4125078;28;20042;-42
2022/12/06 00:38:50;;;;;;;2.72;1.80;;;26.20;53.30;;;;;;4130075;28;20569;-41
2022/12/06 00:41:18;;;;;;;3.70;2.05;;;26.20;53.30;;;;;;4125430;28;20042;-44
2022/12/06 00:43:41;;;;;;;3.92;1.73;;;26.30;53.30;;;;;;4125239;28;20034;-46
2022/12/06 00:46:06;;;;;;;3.57;1.63;;;26.30;53.30;;;;;;4126894;28;20046;-44
2022/12/06 00:48:29;;;;;;;2.10;1.48;;;26.30;53.20;;;;;;4123710;28;20037;-43
2022/12/06 00:50:51;;;;;;;3.38;1.73;;;26.30;53.10;;;;;;4122675;28;20509;-43
2022/12/06 00:53:14;;;;;;;3.08;1.80;;;26.40;53.20;;;;;;4122643;28;20064;-43
2022/12/06 00:55:36;;;;;;;4.57;1.23;;;26.40;53.10;;;;;;4124070;28;20069;-46
2022/12/06 00:57:59;;;;;;;3.28;1.63;;;26.40;52.90;;;;;;4124972;28;20041;-43
2022/12/06 01:00:22;;;;;;;2.60;1.60;;;26.40;52.90;;;;;;4128174;28;20070;-45
2022/12/06 01:02:44;;;;;;;3.53;1.30;;;26.40;52.80;;;;;;4128162;28;20050;-42
2022/12/06 01:05:07;;;;;;;1.77;1.13;;;26.40;52.90;;;;;;4126385;28;20633;-42
2022/12/06 01:07:30;;;;;;;3.07;1.40;;;26.40;52.90;;;;;;4125267;28;20046;-41
2022/12/06 01:09:52;;;;;;;3.05;1.35;;;26.40;52.90;;;;;;4124054;28;20284;-42
2022/12/06 01:12:15;;;;;;;3.00;1.40;;;26.50;52.90;;;;;;4126844;28;20050;-41
2022/12/06 01:14:38;;;;;;;2.67;1.42;;;26.50;52.80;;;;;;4126523;28;20065;-42
2022/12/06 01:17:00;;;;;;;2.25;1.58;;;26.50;52.70;;;;;;4124414;28;20093;-42
2022/12/06 01:19:23;;;;;;;3.00;1.40;;;26.50;52.70;;;;;;4126174;28;20252;-42
2022/12/06 01:21:47;;;;;;;1.83;1.20;;;26.50;52.70;;;;;;4119738;28;20474;-42
2022/12/06 01:24:10;;;;;;;3.13;1.67;;;26.50;52.60;;;;;;4123440;28;20038;-46
2022/12/06 01:26:34;;;;;;;2.53;1.30;;;26.50;52.50;;;;;;4123861;28;20038;-42
2022/12/06 01:28:59;;;;;;;5.72;1.40;;;26.50;52.50;;;;;;4130326;28;20324;-46
2022/12/06 01:31:21;;;;;;;3.78;1.58;;;26.50;52.50;;;;;;4123238;28;20052;-44
2022/12/06 01:33:45;;;;;;;4.20;1.90;;;26.50;52.40;;;;;;4123771;28;20081;-49
2022/12/06 01:36:08;;;;;;;2.67;1.40;;;26.50;52.10;;;;;;4122906;28;20415;-44
2022/12/06 01:38:31;;;;;;;3.55;1.52;;;26.60;52.00;;;;;;4124107;28;20046;-42
2022/12/06 01:40:53;;;;;;;3.38;1.52;;;26.50;51.90;;;;;;4124567;28;20393;-47
2022/12/06 01:43:36;;;;;;;2.58;1.25;;;26.60;51.80;;;;;;4122105;28;20046;-47
2022/12/06 01:46:06;;;;;;;2.97;1.15;;;26.60;51.80;;;;;;4134317;28;20049;-48
2022/12/06 01:48:29;;;;;;;3.85;1.60;;;26.60;51.90;;;;;;4121060;28;20046;-41
2022/12/06 01:50:53;;;;;;;2.58;1.77;;;26.60;52.10;;;;;;4121879;28;20042;-41
2022/12/06 01:53:17;;;;;;;4.15;1.60;;;26.60;52.30;;;;;;4120216;28;20038;-42
2022/12/06 01:55:40;;;;;;;5.55;1.70;;;26.60;52.60;;;;;;4118608;28;20093;-40
2022/12/06 01:58:10;;;;;;;4.18;2.00;;;26.60;52.80;;;;;;4122027;28;20065;-45
2022/12/06 02:00:34;;;;;;;3.85;3.00;;;26.60;52.90;;;;;;4121029;28;20046;-47
2022/12/06 02:02:59;;;;;;;3.90;3.10;;;26.60;53.10;;;;;;4120572;28;20042;-46
2022/12/06 02:05:22;;;;;;;4.57;3.00;;;26.60;53.20;;;;;;4122549;28;20113;-46
2022/12/06 02:07:45;;;;;;;4.50;2.72;;;26.70;53.30;;;;;;4121311;28;20070;-48
2022/12/06 02:10:08;;;;;;;3.90;2.33;;;26.70;53.30;;;;;;4122832;28;20034;-45
2022/12/06 02:12:30;;;;;;;3.35;2.13;;;26.70;53.30;;;;;;4124923;28;20041;-47
2022/12/06 02:14:55;;;;;;;3.97;1.95;;;26.70;53.20;;;;;;4131714;28;20041;-43
2022/12/06 02:17:29;;;;;;;3.40;1.83;;;26.70;53.10;;;;;;4125138;28;20448;-41
2022/12/06 02:20:00;;;;;;;3.70;1.60;;;26.70;53.10;;;;;;4123433;28;20050;-43
2022/12/06 02:22:50;;;;;;;8.55;2.45;;;26.70;53.20;;;;;;4123629;28;20049;-52
2022/12/06 02:25:37;;;;;;;5.68;1.80;;;26.70;53.30;;;;;;4126234;28;20081;-60
2022/12/06 02:28:11;;;;;;;4.13;1.98;;;26.80;53.30;;;;;;4127662;28;20038;-52
2022/12/06 02:30:42;;;;;;;6.50;2.40;;;26.80;52.70;;;;;;4135304;28;20045;-47
2022/12/06 02:33:32;;;;;;;5.80;1.88;;;26.80;52.70;;;;;;4126707;28;20046;-46
2022/12/06 02:36:12;;;;;;;2.97;1.48;;;26.80;52.50;;;;;;4127213;28;20041;-47
2022/12/06 02:39:01;;;;;;;3.22;1.60;;;26.70;52.10;;;;;;4122882;28;20050;-44
2022/12/06 02:41:48;;;;;;;3.03;1.27;;;26.70;52.00;;;;;;4116265;28;20121;-47
2022/12/06 02:44:22;;;;;;;2.65;1.40;;;26.70;52.10;;;;;;4119089;28;20066;-45
2022/12/06 02:46:47;;;;;;;5.40;1.50;;;26.70;52.40;;;;;;4117342;28;20069;-45
2022/12/06 02:49:11;;;;;;;3.67;1.58;;;26.60;52.50;;;;;;4118226;28;20085;-44
2022/12/06 02:51:36;;;;;;;6.57;1.90;;;26.60;52.80;;;;;;4116257;28;20108;-44
2022/12/06 02:54:02;;;;;;;3.47;1.83;;;26.60;52.90;;;;;;4120787;28;20173;-46
2022/12/06 02:56:25;;;;;;;4.68;1.63;;;26.60;53.10;;;;;;4115198;28;20042;-48
2022/12/06 02:58:47;;;;;;;4.17;1.60;;;26.60;53.30;;;;;;4118926;28;20033;-44
2022/12/06 03:01:24;;;;;;;5.65;1.70;;;26.60;53.10;;;;;;4117468;28;20498;-45
2022/12/06 03:03:54;;;;;;;6.22;1.80;;;26.60;53.40;;;;;;4114699;28;20034;-44
2022/12/06 03:06:55;;;;;;;7.03;2.03;;;26.60;52.90;;;;;;4112623;28;20041;-46
2022/12/06 03:09:27;;;;;;;3.22;1.55;;;26.50;52.50;;;;;;4118855;28;20041;-44
2022/12/06 03:12:30;;;;;;;2.92;1.20;;;26.50;52.50;;;;;;4118393;28;20145;-47
2022/12/06 03:15:02;;;;;;;4.80;1.55;;;26.50;52.90;;;;;;4116423;28;20178;-44
2022/12/06 03:17:39;;;;;;;2.72;0.98;;;26.40;52.90;;;;;;4122858;28;20532;-47
2022/12/06 03:20:09;;;;;;;4.55;1.38;;;26.50;52.50;;;;;;4124538;28;20039;-45
2022/12/06 03:22:40;;;;;;;3.53;1.20;;;26.50;52.40;;;;;;4118033;28;20065;-46
2022/12/06 03:25:04;;;;;;;2.50;0.98;;;26.40;52.40;;;;;;4123550;28;20465;-46
2022/12/06 03:27:30;;;;;;;2.85;1.13;;;26.40;52.40;;;;;;4122906;28;20070;-44
2022/12/06 03:29:58;;;;;;;3.90;0.73;;;26.40;52.00;;;;;;4126050;28;20042;-45
2022/12/06 03:32:24;;;;;;;2.58;0.88;;;26.40;51.90;;;;;;4119900;28;20049;-45
2022/12/06 03:34:51;;;;;;;1.73;0.70;;;26.40;51.90;;;;;;4121794;28;20117;-46
2022/12/06 03:37:20;;;;;;;2.08;0.90;;;26.30;52.00;;;;;;4125878;28;20042;-45
2022/12/06 03:40:06;;;;;;;2.83;0.90;;;26.30;51.90;;;;;;4125126;28;20050;-45
2022/12/06 03:42:30;;;;;;;4.45;1.13;;;26.30;51.90;;;;;;4130544;28;20073;-44
2022/12/06 03:44:52;;;;;;;;;;;26.30;51.70;;;;;;4115105;28;20073;-45
2022/12/06 03:47:37;;;;;;;1.85;0.70;;;26.30;51.70;;;;;;4107934;28;20091;-46
2022/12/06 03:50:15;;;;;;;3.03;0.77;;;26.30;51.70;;;;;;4116960;28;20042;-46
2022/12/06 03:52:38;;;;;;;2.88;0.77;;;26.30;51.70;;;;;;4117826;28;20436;-47
2022/12/06 03:55:01;;;;;;;1.92;0.75;;;26.30;51.50;;;;;;4114739;28;20134;-46
2022/12/06 03:57:24;;;;;;;1.83;0.60;;;26.30;51.70;;;;;;4119164;28;20062;-45
2022/12/06 03:59:46;;;;;;;1.23;0.63;;;26.30;52.50;;;;;;4117403;28;20046;-43
2022/12/06 04:02:09;;;;;;;2.63;0.70;;;26.40;53.30;;;;;;4118641;28;20340;-48
2022/12/06 04:04:31;;;;;;;3.45;0.95;;;26.40;53.40;;;;;;4118815;28;20039;-50
2022/12/06 04:06:54;;;;;;;1.80;0.80;;;26.50;53.50;;;;;;4119446;28;20034;-43
2022/12/06 04:11:57;;;;;;;2.35;0.75;;;26.60;54.00;;;;;;4118414;28;20184;-43
2022/12/06 04:14:20;;;;;;;2.33;0.93;;;26.60;54.10;;;;;;4120970;28;20034;-44
2022/12/06 04:19:23;;;;;;;2.72;0.60;;;26.70;53.90;;;;;;4117595;28;20490;-44
2022/12/06 04:24:27;;;;;;;2.67;1.05;;;26.80;53.60;;;;;;4115416;28;20391;-47
2022/12/06 04:26:49;;;;;;;2.72;0.80;;;26.90;53.40;;;;;;4122353;28;20034;-42
2022/12/06 04:39:54;;;;;;;1.67;0.70;;;27.10;53.00;;;;;;4124083;28;20051;-41
2022/12/06 04:44:58;;;;;;;5.13;0.90;;;27.20;53.60;;;;;;4121471;28;20074;-46
2022/12/06 04:47:21;;;;;;;2.15;0.60;;;27.20;52.80;;;;;;4123721;28;20483;-43
2022/12/06 04:49:43;;;;;;;1.92;0.60;;;27.30;52.70;;;;;;4121203;28;20469;-46
2022/12/06 04:52:08;;;;;;;1.92;0.82;;;27.40;52.50;;;;;;4119433;28;20058;-44
2022/12/06 04:54:31;;;;;;;2.08;0.65;;;27.40;52.50;;;;;;4119354;28;20121;-41
2022/12/06 04:56:53;;;;;;;0.87;0.67;;;27.50;52.50;;;;;;4119707;28;20410;-46
2022/12/06 04:59:16;;;;;;;3.90;0.93;;;27.50;52.40;;;;;;4125492;28;20100;-49
2022/12/06 05:01:38;;;;;;;4.38;1.23;;;27.60;52.30;;;;;;4124805;28;20459;-43
2022/12/06 05:04:01;;;;;;;3.70;0.93;;;27.60;52.20;;;;;;4126283;28;20039;-44
2022/12/06 05:06:23;;;;;;;3.42;1.10;;;27.70;52.10;;;;;;4121975;28;20588;-42
2022/12/06 05:08:46;;;;;;;5.53;0.95;;;27.70;51.80;;;;;;4118518;28;20349;-42
2022/12/06 05:11:09;;;;;;;3.45;1.20;;;27.80;51.60;;;;;;4115986;28;20505;-44
2022/12/06 05:13:31;;;;;;;8.70;1.20;;;27.80;51.50;;;;;;4119622;28;20096;-45
2022/12/06 05:15:57;;;;;;;5.05;1.20;;;27.90;51.50;;;;;;4121395;28;20560;-43
2022/12/06 05:18:20;;;;;;;3.97;0.85;;;27.90;51.30;;;;;;4116321;28;20149;-41
2022/12/06 05:20:42;;;;;;;3.17;0.80;;;27.90;51.00;;;;;;4120019;28;20058;-44
2022/12/06 05:23:05;;;;;;;3.22;0.93;;;28.00;50.90;;;;;;4119769;28;20570;-41
2022/12/06 05:25:27;;;;;;;1.40;0.75;;;28.00;50.90;;;;;;4121686;28;20504;-44
2022/12/06 05:27:50;;;;;;;3.30;0.70;;;28.10;51.00;;;;;;4119359;28;20042;-44
2022/12/06 05:30:13;;;;;;;4.15;1.02;;;28.20;50.70;;;;;;4123649;28;20074;-41
2022/12/06 05:32:37;;;;;;;2.03;0.85;;;28.20;50.50;;;;;;4121127;28;20042;-43
2022/12/06 05:35:00;;;;;;;2.60;1.10;;;28.30;50.40;;;;;;4119979;28;20121;-43
2022/12/06 05:37:22;;;;;;;5.45;0.90;;;28.30;50.10;;;;;;4121556;28;20042;-41
2022/12/06 05:39:45;;;;;;;3.53;1.10;;;28.30;49.90;;;;;;4123823;28;20057;-45
2022/12/06 05:42:07;;;;;;;3.45;1.10;;;28.30;49.70;;;;;;4123374;28;20494;-43
2022/12/06 05:44:30;;;;;;;3.28;0.90;;;28.40;49.60;;;;;;4122897;28;20038;-43
2022/12/06 05:46:52;;;;;;;1.85;0.88;;;28.40;49.60;;;;;;4124982;28;20125;-43
2022/12/06 05:49:15;;;;;;;2.67;0.85;;;28.50;49.50;;;;;;4124756;28;20034;-45
2022/12/06 05:51:38;;;;;;;2.55;0.85;;;28.50;49.40;;;;;;4124521;28;20061;-44
2022/12/06 05:54:03;;;;;;;2.30;0.83;;;28.60;49.20;;;;;;4125909;28;20057;-45
2022/12/06 05:56:26;;;;;;;4.18;1.00;;;28.60;49.20;;;;;;4126060;28;20095;-43
2022/12/06 05:58:48;;;;;;;4.50;1.23;;;28.60;49.20;;;;;;4127808;28;20044;-39
2022/12/06 06:01:11;;;;;;;3.30;0.80;;;28.70;49.50;;;;;;4121244;28;20042;-42
2022/12/06 06:03:34;;;;;;;6.17;1.00;;;28.80;49.80;;;;;;4124908;28;20045;-41
2022/12/06 06:06:01;;;;;;;2.83;0.90;;;28.90;49.80;;;;;;4122587;28;20038;-42
2022/12/06 06:08:24;;;;;;;1.70;0.60;;;29.00;49.70;;;;;;4115330;28;20125;-42
2022/12/06 06:10:46;;;;;;;1.23;0.50;;;29.20;49.80;;;;;;4119252;28;20037;-42
2022/12/06 06:13:09;;;;;;;5.47;0.70;;;29.30;49.80;;;;;;4120604;28;20496;-42
2022/12/06 06:15:32;;;;;;;3.58;0.98;;;29.40;50.00;;;;;;4117685;28;20403;-41
2022/12/06 06:17:55;;;;;;;2.10;0.60;;;29.40;50.00;;;;;;4117773;28;20391;-42
2022/12/06 06:20:18;;;;;;;1.13;0.60;;;29.50;50.00;;;;;;4122615;28;20486;-45
2022/12/06 06:22:41;;;;;;;1.55;0.73;;;29.50;49.90;;;;;;4117340;28;20034;-43
2022/12/06 06:25:05;;;;;;;2.88;0.90;;;29.60;50.00;;;;;;4117879;28;20866;-45
2022/12/06 06:27:28;;;;;;;3.25;0.80;;;29.60;50.10;;;;;;4116745;28;20038;-43
2022/12/06 06:29:51;;;;;;;3.67;1.00;;;29.70;50.10;;;;;;4118124;28;20094;-43
2022/12/06 06:32:13;;;;;;;4.28;0.90;;;29.70;50.00;;;;;;4120261;28;20046;-46
2022/12/06 06:34:35;;;;;;;1.85;0.70;;;29.70;50.20;;;;;;4122579;28;20057;-41
2022/12/06 06:36:58;;;;;;;1.23;0.52;;;29.70;50.30;;;;;;4123806;28;20057;-42
2022/12/06 06:39:20;;;;;;;2.20;0.80;;;29.80;50.30;;;;;;4122309;28;20054;-42
2022/12/06 06:41:46;;;;;;;5.00;0.82;;;29.80;50.20;;;;;;4122043;28;20037;-43
2022/12/06 06:44:08;;;;;;;4.03;0.65;;;29.80;50.20;;;;;;4124841;28;20034;-42
2022/12/06 06:46:31;;;;;;;3.10;0.85;;;29.80;50.20;;;;;;4124720;28;20125;-42
2022/12/06 06:48:53;;;;;;;2.07;1.00;;;29.70;50.10;;;;;;4120425;28;20464;-41
2022/12/06 06:51:16;;;;;;;5.45;2.53;;;29.80;50.20;;;;;;4121346;28;20042;-42
2022/12/06 06:53:39;;;;;;;7.50;3.65;;;29.70;50.20;;;;;;4124626;28;20121;-43
2022/12/06 06:56:01;;;;;;;;;;;29.70;50.20;;;;;;4124333;28;20125;-42
2022/12/06 06:58:24;;;;;;;11.57;6.45;;;29.70;50.30;;;;;;4123169;28;19913;-41
2022/12/06 07:00:52;;;;;;;16.42;6.75;;;29.70;50.10;;;;;;4122984;28;20061;-42
2022/12/06 07:03:15;;;;;;;13.15;7.13;;;29.70;50.00;;;;;;4124867;28;20042;-43
2022/12/06 07:05:38;;;;;;;16.25;8.93;;;29.70;49.80;;;;;;4122741;28;20034;-41
2022/12/06 07:08:00;;;;;;;18.73;10.10;;;29.70;49.60;;;;;;4121871;28;20042;-42
2022/12/06 07:10:26;;;;;;;14.05;8.38;;;29.60;49.40;;;;;;4127668;28;20100;-46
2022/12/06 07:12:50;;;;;;;17.45;9.50;;;29.60;49.40;;;;;;4121861;28;20050;-41
2022/12/06 07:15:13;;;;;;;13.35;8.18;;;29.50;49.30;;;;;;4125936;28;20148;-42
2022/12/06 07:17:35;;;;;;;13.95;7.72;;;29.50;49.40;;;;;;4123505;28;20085;-42
2022/12/06 07:19:58;;;;;;;13.85;7.15;;;29.50;49.40;;;;;;4119938;28;20109;-49
2022/12/06 07:22:20;;;;;;;11.38;6.72;;;29.40;49.50;;;;;;4122658;28;20046;-44
2022/12/06 07:24:43;;;;;;;14.43;7.13;;;29.40;49.70;;;;;;4125508;28;21300;-44
2022/12/06 07:27:05;;;;;;;11.65;5.72;;;29.30;49.70;;;;;;4123515;28;20161;-44
2022/12/06 07:29:28;;;;;;;9.95;5.43;;;29.30;49.90;;;;;;4117938;28;20034;-44
2022/12/06 07:31:51;;;;;;;8.77;4.47;;;29.20;50.10;;;;;;4122276;28;20061;-44
2022/12/06 07:34:13;;;;;;;9.25;4.40;;;29.20;50.20;;;;;;4122491;28;20454;-45
2022/12/06 07:36:36;;;;;;;9.98;4.18;;;29.20;50.40;;;;;;4121378;28;20038;-42
2022/12/06 07:38:59;;;;;;;8.52;4.20;;;29.10;50.50;;;;;;4124042;28;20054;-49
2022/12/06 07:46:47;;;;;;;7.78;3.35;;;29.10;50.90;;;;;;4120487;28;20380;-44
2022/12/06 07:49:10;;;;;;;7.97;2.95;;;29.00;50.30;;;;;;4121992;28;20109;-46
2022/12/06 07:51:32;;;;;;;8.15;2.65;;;29.00;50.50;;;;;;4121277;28;20042;-43
2022/12/06 07:53:55;;;;;;;4.93;2.53;;;29.00;50.70;;;;;;4120253;28;20045;-48
2022/12/06 07:56:18;;;;;;;6.32;2.60;;;28.90;50.70;;;;;;4116067;28;20413;-43
2022/12/06 07:58:41;;;;;;;7.15;2.50;;;28.90;50.90;;;;;;4117447;28;20047;-43
2022/12/06 08:01:04;;;;;;;3.55;2.00;;;28.90;50.90;;;;;;4118306;28;20113;-40
2022/12/06 08:03:26;;;;;;;4.45;2.00;;;28.90;51.00;;;;;;4115448;28;20468;-40
2022/12/06 08:05:55;;;;;;;4.70;1.92;;;28.90;51.20;;;;;;4118385;28;20038;-42
2022/12/06 08:08:18;;;;;;;5.05;2.20;;;28.80;51.30;;;;;;4115357;28;20038;-43
2022/12/06 08:10:40;;;;;;;4.53;1.83;;;28.80;51.40;;;;;;4116611;28;20133;-47
2022/12/06 08:13:03;;;;;;;4.55;1.70;;;28.70;51.40;;;;;;4115335;28;20030;-43
2022/12/06 08:15:26;;;;;;;3.10;1.50;;;28.70;51.60;;;;;;4114257;28;20049;-41
2022/12/06 08:17:48;;;;;;;2.40;1.33;;;28.70;51.70;;;;;;4116955;28;20175;-40
2022/12/06 08:20:11;;;;;;;6.15;1.23;;;28.70;51.80;;;;;;4116515;28;20150;-42
2022/12/06 08:22:34;;;;;;;5.00;1.20;;;28.60;51.70;;;;;;4116372;28;20026;-45
2022/12/06 08:24:57;;;;;;;3.88;1.20;;;28.60;51.70;;;;;;4117722;28;20046;-45
2022/12/06 08:27:19;;;;;;;3.58;1.23;;;28.60;51.70;;;;;;4119402;28;20557;-42
2022/12/06 08:29:44;;;;;;;3.25;1.20;;;28.60;51.80;;;;;;4116233;28;20069;-42
2022/12/06 08:32:06;;;;;;;2.67;1.10;;;28.60;51.80;;;;;;4119918;28;20061;-44
2022/12/06 08:34:29;;;;;;;1.80;1.20;;;28.50;51.70;;;;;;4120684;28;20524;-44
2022/12/06 08:36:51;;;;;;;3.22;1.00;;;28.50;51.80;;;;;;4120297;28;20121;-43
2022/12/06 08:39:14;;;;;;;2.95;1.15;;;28.50;51.80;;;;;;4121545;28;20046;-42
2022/12/06 08:41:56;;;;;;;3.97;1.27;;;28.40;51.70;;;;;;4118412;28;20363;-42
2022/12/06 08:44:19;;;;;;;1.67;0.80;;;28.50;51.80;;;;;;4121666;28;20464;-44
2022/12/06 08:46:42;;;;;;;1.70;0.77;;;28.40;51.70;;;;;;4119027;28;20050;-48
2022/12/06 08:49:05;;;;;;;2.57;1.10;;;28.40;51.80;;;;;;4116712;28;20058;-43
2022/12/06 08:51:30;;;;;;;1.67;0.83;;;28.30;51.70;;;;;;4119835;28;20050;-45
2022/12/06 08:53:54;;;;;;;1.58;0.80;;;28.40;51.80;;;;;;4120848;28;20046;-43
2022/12/06 08:56:16;;;;;;;1.98;0.75;;;28.30;51.80;;;;;;4119299;28;20145;-41
2022/12/06 08:58:39;;;;;;;3.92;1.00;;;28.30;51.90;;;;;;4119291;28;20062;-46
2022/12/06 09:01:09;;;;;;;3.42;1.10;;;28.30;52.00;;;;;;4117694;28;20089;-42
2022/12/06 09:03:31;;;;;;;1.35;0.70;;;28.20;51.90;;;;;;4122160;28;20038;-45
2022/12/06 09:05:54;;;;;;;1.77;0.70;;;28.30;52.00;;;;;;4121661;28;20030;-45
2022/12/06 09:08:16;;;;;;;1.50;0.70;;;28.20;52.00;;;;;;4124175;28;20038;-42
2022/12/06 09:10:39;;;;;;;5.70;1.25;;;28.20;52.10;;;;;;4125464;28;20038;-52
2022/12/06 09:13:01;;;;;;;2.85;1.00;;;28.20;52.30;;;;;;4124771;28;20516;-43
2022/12/06 09:15:24;;;;;;;13.55;1.85;;;28.20;51.90;;;;;;4123608;28;20030;-41
2022/12/06 09:17:46;;;;;;;8.15;2.13;;;28.20;51.80;;;;;;4122854;28;20047;-43
2022/12/06 09:20:09;;;;;;;5.22;1.73;;;28.20;51.80;;;;;;4122363;28;20487;-50
2022/12/06 09:22:32;;;;;;;4.35;1.15;;;28.20;51.50;;;;;;4122903;28;20060;-43
2022/12/06 09:24:54;;;;;;;3.33;0.93;;;28.10;51.30;;;;;;4125470;28;20042;-45
2022/12/06 09:27:19;;;;;;;4.13;1.02;;;28.10;51.10;;;;;;4121628;28;20129;-43
2022/12/06 09:29:41;;;;;;;3.17;1.25;;;28.10;50.90;;;;;;4122882;28;20073;-46
2022/12/06 09:32:04;;;;;;;4.68;1.25;;;28.10;50.90;;;;;;4124561;28;20252;-46
2022/12/06 09:34:26;;;;;;;4.93;1.35;;;28.00;50.60;;;;;;4122828;28;20035;-44
2022/12/06 09:36:52;;;;;;;4.15;1.30;;;28.00;50.50;;;;;;4122540;28;20065;-44
2022/12/06 09:39:20;;;;;;;5.43;1.30;;;28.00;50.30;;;;;;4121336;28;20482;-45
2022/12/06 09:42:16;;;;;;;6.13;1.58;;;28.00;50.30;;;;;;4123682;28;20049;-42
2022/12/06 09:44:46;;;;;;;3.80;1.20;;;27.90;50.30;;;;;;4124487;28;20046;-43
2022/12/06 09:47:17;;;;;;;3.50;0.80;;;27.90;49.70;;;;;;4125572;28;20065;-44
2022/12/06 09:50:16;;;;;;;3.25;1.40;;;27.90;49.30;;;;;;4125560;28;20046;-43
2022/12/06 09:53:12;;;;;;;5.10;1.38;;;27.80;49.20;;;;;;4119302;28;20508;-42
2022/12/06 09:56:20;;;;;;;6.57;1.25;;;27.80;49.80;;;;;;4121369;28;20129;-42
2022/12/06 09:59:01;;;;;;;6.20;1.30;;;27.70;50.20;;;;;;4124447;28;20391;-42
2022/12/06 10:01:30;;;;;;;7.82;1.70;;;27.70;50.50;;;;;;4117929;28;20030;-42
2022/12/06 10:04:01;;;;;;;3.08;1.30;;;27.70;51.00;;;;;;4124672;28;20099;-41
2022/12/06 10:06:29;;;;;;;6.25;1.30;;;27.70;51.00;;;;;;4125645;28;20034;-39
2022/12/06 10:08:54;;;;;;;10.73;1.45;;;27.60;50.20;;;;;;4123490;28;20046;-41
2022/12/06 10:11:24;;;;;;;6.38;1.40;;;27.60;50.70;;;;;;4099399;28;20550;-43
2022/12/06 10:14:10;;;;;;;4.47;1.20;;;27.60;50.90;;;;;;4114759;28;20990;-41
2022/12/06 10:16:45;;;;;;;2.13;0.85;;;27.60;51.00;;;;;;4125235;28;20046;-43
2022/12/06 10:19:34;;;;;;;3.85;1.13;;;27.60;50.90;;;;;;4121555;28;20034;-43
2022/12/06 10:22:23;;;;;;;3.38;1.13;;;27.50;50.80;;;;;;4124432;28;20041;-45
2022/12/06 10:25:15;;;;;;;5.70;1.38;;;27.60;50.70;;;;;;4121142;28;20497;-42
2022/12/06 10:27:52;;;;;;;3.50;0.90;;;27.50;50.70;;;;;;4120530;28;20070;-41
2022/12/06 10:30:16;;;;;;;1.58;0.75;;;27.50;50.70;;;;;;4120950;28;20041;-42
2022/12/06 10:33:11;;;;;;;5.65;1.73;;;27.50;50.70;;;;;;4124516;28;20453;-46
2022/12/06 10:35:48;;;;;;;13.02;2.05;;;27.50;50.80;;;;;;4126428;28;20552;-43
2022/12/06 10:38:33;;;;;;;4.68;1.55;;;27.50;50.80;;;;;;4121582;28;20445;-46
2022/12/06 10:41:20;;;;;;;6.40;1.55;;;27.50;51.00;;;;;;4122556;28;20038;-50
2022/12/06 10:44:16;;;;;;;9.60;1.50;;;27.50;51.20;;;;;;4121599;28;20050;-41
2022/12/06 10:47:02;;;;;;;9.40;2.15;;;27.50;51.50;;;;;;4120894;28;20058;-43
2022/12/06 10:49:30;;;;;;;8.60;1.83;;;27.50;51.50;;;;;;4123517;28;20504;-43
2022/12/06 10:52:16;;;;;;;6.85;1.80;;;27.40;51.50;;;;;;4123366;28;20044;-42
2022/12/06 10:55:04;;;;;;;10.90;1.48;;;27.40;51.40;;;;;;4120427;28;20143;-42
2022/12/06 10:57:48;;;;;;;4.88;1.10;;;27.40;51.30;;;;;;4119182;28;20748;-42
2022/12/06 11:00:23;;;;;;;5.00;1.20;;;27.30;51.20;;;;;;4117758;28;20038;-45
2022/12/06 11:02:53;;;;;;;5.28;1.27;;;27.30;51.20;;;;;;4120128;28;20038;-45
2022/12/06 11:05:45;;;;;;;3.70;1.27;;;27.30;51.20;;;;;;4117498;28;20041;-45
2022/12/06 11:08:17;;;;;;;6.78;1.50;;;27.30;51.20;;;;;;4118526;28;20041;-46
2022/12/06 11:10:44;;;;;;;6.18;1.25;;;27.30;51.10;;;;;;4118431;28;20054;-44
2022/12/06 11:13:30;;;;;;;4.28;1.00;;;27.30;51.10;;;;;;4120341;28;20490;-47
2022/12/06 11:16:05;;;;;;;4.22;1.20;;;27.30;51.20;;;;;;4120411;28;20513;-44
2022/12/06 11:18:29;;;;;;;4.00;1.35;;;27.20;51.00;;;;;;4117961;28;20042;-43
2022/12/06 11:21:10;;;;;;;2.55;1.50;;;27.30;51.10;;;;;;4120155;28;20511;-42
2022/12/06 11:23:32;;;;;;;3.42;0.95;;;27.30;51.00;;;;;;4130014;28;20080;-43
2022/12/06 11:26:21;;;;;;;4.57;1.20;;;27.20;50.90;;;;;;4121441;28;20034;-42
2022/12/06 11:29:03;;;;;;;2.88;1.00;;;27.20;51.00;;;;;;4118458;28;20042;-41
2022/12/06 11:31:51;;;;;;;5.35;1.08;;;27.20;50.90;;;;;;4123061;28;20046;-41
2022/12/06 11:34:22;;;;;;;2.75;0.85;;;27.20;51.00;;;;;;4120421;28;20030;-43
2022/12/06 11:36:46;;;;;;;2.72;1.00;;;27.20;50.90;;;;;;4120935;28;20490;-43
2022/12/06 11:39:12;;;;;;;3.03;1.00;;;27.20;51.00;;;;;;4120918;28;20558;-46
2022/12/06 11:41:36;;;;;;;1.80;1.13;;;27.20;51.00;;;;;;4122630;28;20066;-46
2022/12/06 11:43:59;;;;;;;3.60;1.00;;;27.10;51.00;;;;;;4120317;28;20038;-46
2022/12/06 11:46:23;;;;;;;4.30;1.05;;;27.10;51.70;;;;;;4120931;28;20042;-42
2022/12/06 11:48:46;;;;;;;3.83;1.10;;;27.10;51.00;;;;;;4124492;28;20035;-43
2022/12/06 11:51:20;;;;;;;7.30;1.65;;;27.10;51.00;;;;;;4122993;28;20054;-43
2022/12/06 11:54:23;;;;;;;5.15;0.93;;;27.10;51.00;;;;;;4122060;28;20077;-43
2022/12/06 11:56:47;;;;;;;4.22;1.00;;;27.10;51.00;;;;;;4120055;28;20462;-41
2022/12/06 11:59:30;;;;;;;2.25;1.25;;;27.10;51.00;;;;;;4122218;28;20039;-41
2022/12/06 12:02:02;;;;;;;3.25;1.30;;;27.10;51.10;;;;;;4120426;28;20038;-42
2022/12/06 12:04:42;;;;;;;5.32;1.10;;;27.00;51.00;;;;;;4121362;28;20046;-44
2022/12/06 12:07:19;;;;;;;3.53;1.27;;;27.00;51.00;;;;;;4120941;28;20049;-42
2022/12/06 12:09:55;;;;;;;5.65;1.13;;;27.00;51.00;;;;;;4125678;28;20046;-42
2022/12/06 12:13:42;;;;;;;1.92;0.90;;;27.00;51.00;;;;;;4128834;28;21008;-44
2022/12/06 12:15:18;;;;;;;9.60;1.43;;;27.00;51.00;;;;;;4124477;28;20045;-44
2022/12/06 12:17:48;;;;;;;3.88;1.40;;;26.90;51.00;;;;;;4125495;28;20490;-41
2022/12/06 12:20:29;;;;;;;5.15;0.88;;;26.90;51.10;;;;;;4125388;28;20379;-43
2022/12/06 12:23:18;;;;;;;4.57;1.25;;;26.90;51.10;;;;;;4124785;28;20045;-41
2022/12/06 12:25:43;;;;;;;3.88;1.38;;;26.90;51.20;;;;;;4122516;28;20117;-44
2022/12/06 12:28:28;;;;;;;3.42;1.10;;;26.90;51.20;;;;;;4122413;28;20042;-45
2022/12/06 12:30:56;;;;;;;4.50;1.00;;;26.90;51.30;;;;;;4125676;28;20053;-43
2022/12/06 12:33:22;;;;;;;2.67;0.90;;;26.90;51.30;;;;;;4122824;28;20031;-42
2022/12/06 12:35:54;;;;;;;6.05;1.30;;;26.80;51.20;;;;;;4124256;28;20045;-42
2022/12/06 12:38:20;;;;;;;4.80;1.27;;;26.80;51.10;;;;;;4124910;28;20490;-42
2022/12/06 12:40:49;;;;;;;3.03;1.05;;;26.80;51.20;;;;;;4126981;28;20484;-46
2022/12/06 12:43:11;;;;;;;1.42;0.90;;;26.80;51.10;;;;;;4124418;28;20054;-44
2022/12/06 12:45:34;;;;;;;3.10;1.27;;;26.80;51.20;;;;;;4125241;28;20549;-43
2022/12/06 12:48:02;;;;;;;3.00;0.73;;;26.80;51.20;;;;;;4123591;28;20042;-42
2022/12/06 12:50:24;;;;;;;2.00;0.82;;;26.70;51.10;;;;;;4124190;28;20045;-47
2022/12/06 12:52:47;;;;;;;2.90;1.08;;;26.70;51.20;;;;;;4123218;28;20030;-44
2022/12/06 12:55:25;;;;;;;2.83;1.27;;;26.70;51.20;;;;;;4123058;28;20045;-45
2022/12/06 12:57:53;;;;;;;3.75;1.15;;;26.70;51.30;;;;;;4123482;28;20046;-42
2022/12/06 13:00:21;;;;;;;3.25;0.90;;;26.70;51.30;;;;;;4123873;28;20529;-41
2022/12/06 13:02:47;;;;;;;3.10;0.85;;;26.60;51.20;;;;;;4124076;28;20042;-43
2022/12/06 13:05:27;;;;;;;5.70;1.50;;;26.60;51.30;;;;;;4123787;28;20838;-42
2022/12/06 13:07:52;;;;;;;4.45;1.23;;;26.70;51.30;;;;;;4126543;28;20461;-43
2022/12/06 13:10:21;;;;;;;3.80;0.80;;;26.60;51.30;;;;;;4121138;28;20569;-41
2022/12/06 13:12:56;;;;;;;3.15;0.93;;;26.60;51.40;;;;;;4125401;28;20069;-45
2022/12/06 13:15:20;;;;;;;5.18;1.27;;;26.60;51.30;;;;;;4125320;28;20102;-42
2022/12/06 13:17:49;;;;;;;3.20;1.00;;;26.60;51.40;;;;;;4124144;28;20501;-43